Time;durP1;ratioP1;P1;durP2;ratioP2;P2;SDS_P1;SDS_P2;PMS_P1;PMS_P2;Temp;Humidity;BMP_temperature;BMP_pressure;BME280_temperature;BME280_humidity;BME280_pressure;Samples;Min_cycle;Max_cycle;Signal;HPM_P1;HPM_P2
2022/05/06 00:00:26;;;;;;;12.67;10.77;;;15.80;96.20;;;;;;5092224;28;20203;-68
2022/05/06 00:02:54;;;;;;;12.10;10.90;;;15.80;96.10;;;;;;5084063;28;20229;-68
2022/05/06 00:05:21;;;;;;;11.30;10.13;;;15.80;96.10;;;;;;5077013;28;20668;-68
2022/05/06 00:07:48;;;;;;;10.67;9.67;;;15.80;96.10;;;;;;5074008;28;20249;-68
2022/05/06 00:10:15;;;;;;;11.63;10.07;;;15.80;96.10;;;;;;5092920;28;20307;-68
2022/05/06 00:12:42;;;;;;;12.37;11.07;;;15.80;96.10;;;;;;5083176;28;20219;-68
2022/05/06 00:15:11;;;;;;;14.60;11.33;;;15.80;96.10;;;;;;5076392;28;20239;-68
2022/05/06 00:17:39;;;;;;;13.00;11.67;;;15.80;96.10;;;;;;5100908;28;20205;-68
2022/05/06 00:20:06;;;;;;;11.20;9.90;;;15.80;96.10;;;;;;5076674;28;20228;-68
2022/05/06 00:22:33;;;;;;;13.30;11.17;;;15.80;96.10;;;;;;5084659;28;20250;-69
2022/05/06 00:25:00;;;;;;;13.03;10.20;;;15.80;96.00;;;;;;5091263;28;20210;-69
2022/05/06 00:27:27;;;;;;;12.17;10.67;;;15.90;96.00;;;;;;5087128;28;20235;-69
2022/05/06 00:29:56;;;;;;;12.27;10.53;;;15.80;96.00;;;;;;5072991;28;20317;-69
2022/05/06 00:32:24;;;;;;;13.73;10.63;;;15.80;96.00;;;;;;5074157;28;20256;-69
2022/05/06 00:34:52;;;;;;;12.07;10.43;;;15.80;96.00;;;;;;5068134;28;20300;-69
2022/05/06 00:37:19;;;;;;;13.03;10.77;;;15.80;96.00;;;;;;5076571;28;20289;-69
2022/05/06 00:39:47;;;;;;;11.70;10.50;;;15.80;96.00;;;;;;5076347;28;20255;-69
2022/05/06 00:42:16;;;;;;;12.13;10.37;;;15.80;96.00;;;;;;5071658;28;20210;-68
2022/05/06 00:44:43;;;;;;;11.83;10.63;;;15.80;96.10;;;;;;5078929;28;20209;-68
2022/05/06 00:47:13;;;;;;;11.20;9.87;;;15.70;96.10;;;;;;5063427;28;20215;-68
2022/05/06 00:49:40;;;;;;;11.77;10.57;;;15.70;96.20;;;;;;5045284;28;20233;-68
2022/05/06 00:52:09;;;;;;;12.23;10.73;;;15.70;96.20;;;;;;5059788;28;20213;-68
2022/05/06 00:54:38;;;;;;;11.60;10.40;;;15.70;96.20;;;;;;5069966;28;20654;-69
2022/05/06 00:57:07;;;;;;;12.00;10.33;;;15.70;96.30;;;;;;5072389;28;20208;-69
2022/05/06 01:00:17;;;;;;;11.57;9.97;;;15.70;96.30;;;;;;5096100;28;20239;-69
2022/05/06 01:02:26;;;;;;;12.53;10.43;;;15.70;96.30;;;;;;5073995;28;20215;-69
2022/05/06 01:04:57;;;;;;;10.77;9.70;;;15.70;96.30;;;;;;5071522;28;20212;-69
2022/05/06 01:07:24;;;;;;;10.50;9.40;;;15.70;96.20;;;;;;5076790;28;20204;-69
2022/05/06 01:09:52;;;;;;;11.23;10.03;;;15.70;96.20;;;;;;5085800;28;20223;-69
2022/05/06 01:12:20;;;;;;;12.83;10.23;;;15.70;96.30;;;;;;5088584;28;20208;-69
2022/05/06 01:14:47;;;;;;;12.30;10.10;;;15.60;96.30;;;;;;5079353;28;20605;-69
2022/05/06 01:17:22;;;;;;;13.07;10.53;;;15.60;96.40;;;;;;5073597;28;20307;-69
2022/05/06 01:19:50;;;;;;;11.47;9.53;;;15.60;96.40;;;;;;5085762;28;20221;-69
2022/05/06 01:22:17;;;;;;;11.23;10.07;;;15.60;96.40;;;;;;5081286;28;20244;-69
2022/05/06 01:24:44;;;;;;;11.47;9.50;;;15.60;96.40;;;;;;5065912;28;20886;-68
2022/05/06 01:27:20;;;;;;;12.07;10.20;;;15.60;96.40;;;;;;5093958;28;20551;-68
2022/05/06 01:29:48;;;;;;;17.20;10.47;;;15.50;96.40;;;;;;5097157;28;20204;-68
2022/05/06 01:32:17;;;;;;;11.83;9.97;;;15.50;96.50;;;;;;5092292;28;20217;-68
2022/05/06 01:34:46;;;;;;;11.57;10.37;;;15.50;96.60;;;;;;5074411;28;20564;-68
2022/05/06 01:37:19;;;;;;;11.93;10.33;;;15.40;96.70;;;;;;5106445;28;20216;-68
2022/05/06 01:39:52;;;;;;;12.20;9.63;;;15.40;96.70;;;;;;5073085;28;20236;-68
2022/05/06 01:42:22;;;;;;;12.13;10.17;;;15.40;96.80;;;;;;5070502;28;20201;-68
2022/05/06 01:44:56;;;;;;;10.23;9.03;;;15.40;96.80;;;;;;5070354;28;20520;-68
2022/05/06 01:47:26;;;;;;;10.87;9.77;;;15.40;96.90;;;;;;5092883;28;20537;-68
2022/05/06 01:49:59;;;;;;;9.17;8.23;;;15.40;97.00;;;;;;5063576;28;20220;-68
2022/05/06 01:52:31;;;;;;;11.13;8.57;;;15.40;96.90;;;;;;5086465;28;20210;-68
2022/05/06 01:54:58;;;;;;;10.27;9.10;;;15.30;96.80;;;;;;5065936;28;20685;-68
2022/05/06 01:57:30;;;;;;;9.10;8.20;;;15.30;96.80;;;;;;5071461;28;20295;-69
2022/05/06 01:59:57;;;;;;;10.40;8.77;;;15.30;96.80;;;;;;5072137;28;20223;-69
2022/05/06 02:02:25;;;;;;;14.40;8.67;;;15.20;96.80;;;;;;5062613;28;20208;-69
2022/05/06 02:07:48;;;;;;;11.27;9.27;;;15.20;97.00;;;;;;5091005;28;20315;-69
2022/05/06 02:10:22;;;;;;;12.17;10.07;;;15.20;97.00;;;;;;5081309;28;20215;-69
2022/05/06 02:12:56;;;;;;;10.03;9.03;;;15.20;97.10;;;;;;5069712;28;20662;-69
2022/05/06 02:15:38;;;;;;;11.23;9.93;;;15.20;97.20;;;;;;5065327;28;20221;-69
2022/05/06 02:18:24;;;;;;;12.87;10.30;;;15.20;97.20;;;;;;5071222;28;20291;-69
2022/05/06 02:21:29;;;;;;;10.63;9.60;;;15.20;97.20;;;;;;5062064;28;20254;-69
2022/05/06 02:24:15;;;;;;;11.47;9.53;;;15.20;97.20;;;;;;5064154;28;20215;-69
2022/05/06 02:27:02;;;;;;;13.60;10.40;;;15.20;97.20;;;;;;5064295;28;20212;-69
2022/05/06 02:29:30;;;;;;;9.57;8.67;;;15.20;97.30;;;;;;5072622;28;20227;-69
2022/05/06 02:34:47;;;;;;;11.07;9.90;;;15.20;97.30;;;;;;5088158;28;20226;-69
2022/05/06 02:37:16;;;;;;;11.20;9.63;;;15.20;97.40;;;;;;5068017;28;20202;-69
2022/05/06 02:39:48;;;;;;;10.10;9.10;;;15.20;97.40;;;;;;5065574;28;20688;-69
2022/05/06 02:42:19;;;;;;;12.27;9.10;;;15.20;97.40;;;;;;5073602;28;20220;-69
2022/05/06 02:44:49;;;;;;;8.63;7.73;;;15.20;97.40;;;;;;5079810;28;20700;-69
2022/05/06 02:47:17;;;;;;;10.27;8.93;;;15.20;97.40;;;;;;5062636;28;20209;-69
2022/05/06 02:49:46;;;;;;;9.90;8.07;;;15.20;97.40;;;;;;5066089;28;20870;-68
2022/05/06 02:52:16;;;;;;;12.47;9.00;;;15.20;97.40;;;;;;5074554;28;20220;-68
2022/05/06 02:54:43;;;;;;;9.07;8.17;;;15.20;97.40;;;;;;5070441;28;20209;-68
2022/05/06 02:57:15;;;;;;;9.40;8.40;;;15.20;97.50;;;;;;5079390;28;20269;-68
2022/05/06 02:59:44;;;;;;;8.03;7.23;;;15.20;97.50;;;;;;5082676;28;20224;-69
2022/05/06 03:02:12;;;;;;;8.03;7.23;;;15.20;97.60;;;;;;5065014;28;20712;-69
2022/05/06 03:04:41;;;;;;;9.70;8.27;;;15.20;97.60;;;;;;5075885;28;20227;-69
2022/05/06 03:07:12;;;;;;;8.60;7.63;;;15.20;97.60;;;;;;5077823;28;20208;-69
2022/05/06 03:09:44;;;;;;;8.57;7.77;;;15.20;97.60;;;;;;5063334;28;20213;-69
2022/05/06 03:12:12;;;;;;;8.70;6.80;;;15.20;97.70;;;;;;5073124;28;20212;-69
2022/05/06 03:14:50;;;;;;;8.60;7.57;;;15.20;97.60;;;;;;5076138;28;20242;-69
2022/05/06 03:17:40;;;;;;;9.37;7.53;;;15.10;97.50;;;;;;5079024;28;20237;-69
2022/05/06 03:20:10;;;;;;;9.80;7.97;;;15.10;97.50;;;;;;5075832;28;20599;-69
2022/05/06 03:22:41;;;;;;;8.47;7.67;;;15.10;97.60;;;;;;5107259;28;20236;-69
2022/05/06 03:25:12;;;;;;;8.20;7.03;;;15.10;97.70;;;;;;5089604;28;20212;-69
2022/05/06 03:30:30;;;;;;;10.40;7.07;;;15.10;97.80;;;;;;5064396;28;20311;-69
2022/05/06 03:33:14;;;;;;;8.70;7.80;;;15.10;97.90;;;;;;5077311;28;20211;-69
2022/05/06 03:35:41;;;;;;;8.43;7.03;;;15.10;97.90;;;;;;5074151;28;20241;-69
2022/05/06 03:38:09;;;;;;;7.47;6.70;;;15.10;97.90;;;;;;5066821;28;20222;-69
2022/05/06 03:40:41;;;;;;;9.70;6.83;;;15.10;97.90;;;;;;5059278;28;20235;-69
2022/05/06 03:43:08;;;;;;;7.90;7.10;;;15.10;97.90;;;;;;5077861;28;20824;-69
2022/05/06 03:45:39;;;;;;;8.00;7.20;;;15.10;97.90;;;;;;5064078;28;20549;-68
2022/05/06 03:48:08;;;;;;;8.43;7.63;;;15.10;97.90;;;;;;5060951;28;20580;-68
2022/05/06 03:53:30;;;;;;;8.93;7.17;;;15.10;97.90;;;;;;5090753;28;20314;-68
2022/05/06 03:55:58;;;;;;;8.50;7.43;;;15.10;97.80;;;;;;5083700;28;20216;-68
2022/05/06 03:58:32;;;;;;;9.63;7.70;;;15.10;97.80;;;;;;5069363;28;20243;-68
2022/05/06 04:01:00;;;;;;;7.90;6.80;;;15.10;97.80;;;;;;5082976;28;20233;-68
2022/05/06 04:03:27;;;;;;;8.80;7.40;;;15.10;97.90;;;;;;5074767;28;20196;-69
2022/05/06 04:05:55;;;;;;;10.00;7.47;;;15.10;97.90;;;;;;5074950;28;20207;-69
2022/05/06 04:08:23;;;;;;;7.43;6.70;;;15.10;97.90;;;;;;5077312;28;20616;-68
2022/05/06 04:10:50;;;;;;;9.10;7.50;;;15.10;97.80;;;;;;5096574;28;20307;-68
2022/05/06 04:13:18;;;;;;;8.83;6.93;;;15.10;97.90;;;;;;5060484;28;20217;-68
2022/05/06 04:15:48;;;;;;;7.13;6.43;;;15.20;97.90;;;;;;5096225;28;20214;-68
2022/05/06 04:18:18;;;;;;;11.70;7.60;;;15.20;97.90;;;;;;5071776;28;20207;-68
2022/05/06 04:23:37;;;;;;;7.57;6.77;;;15.20;97.80;;;;;;5062742;28;20236;-69
2022/05/06 04:26:12;;;;;;;7.80;6.57;;;15.20;97.90;;;;;;5067460;28;20235;-69
2022/05/06 04:28:48;;;;;;;6.67;6.10;;;15.10;97.90;;;;;;5071981;28;20202;-68
2022/05/06 04:31:17;;;;;;;8.77;7.27;;;15.10;97.90;;;;;;5072316;28;20246;-69
2022/05/06 04:33:46;;;;;;;11.47;7.83;;;15.10;97.90;;;;;;5085870;28;20211;-69
2022/05/06 04:36:21;;;;;;;8.60;7.43;;;15.10;98.20;;;;;;5096175;28;20231;-69
2022/05/06 04:38:52;;;;;;;8.37;7.57;;;15.10;98.00;;;;;;5073045;28;20211;-69
2022/05/06 04:41:20;;;;;;;8.33;7.27;;;15.10;98.30;;;;;;5078693;28;20238;-69
2022/05/06 04:43:47;;;;;;;8.00;7.20;;;15.10;98.00;;;;;;5071694;28;20236;-69
2022/05/06 04:46:17;;;;;;;8.47;7.60;;;15.10;97.90;;;;;;5070912;28;20201;-69
2022/05/06 04:48:45;;;;;;;10.60;8.27;;;15.10;97.90;;;;;;5079038;28;20226;-69
2022/05/06 04:51:16;;;;;;;8.97;7.70;;;15.10;97.80;;;;;;5061515;28;20214;-69
2022/05/06 04:53:44;;;;;;;8.60;7.80;;;15.10;97.90;;;;;;5075670;28;20611;-69
2022/05/06 04:56:11;;;;;;;8.83;7.93;;;15.10;97.80;;;;;;5070528;28;20583;-68
2022/05/06 04:58:41;;;;;;;9.60;7.73;;;15.10;97.90;;;;;;5087922;28;20277;-68
2022/05/06 05:01:16;;;;;;;10.63;7.90;;;15.10;97.90;;;;;;5072687;28;20229;-68
2022/05/06 05:03:45;;;;;;;8.87;7.30;;;15.10;97.80;;;;;;5096357;28;20257;-68
2022/05/06 05:06:13;;;;;;;8.13;7.10;;;15.00;97.80;;;;;;5076425;28;20212;-68
2022/05/06 05:08:41;;;;;;;9.13;6.57;;;15.10;97.80;;;;;;5074760;28;20311;-68
2022/05/06 05:11:09;;;;;;;7.97;7.13;;;15.10;97.60;;;;;;5075974;28;20279;-69
2022/05/06 05:13:43;;;;;;;7.90;7.10;;;15.00;97.60;;;;;;5067546;28;20547;-69
2022/05/06 05:16:19;;;;;;;9.90;7.03;;;15.00;97.60;;;;;;5040390;28;20216;-69
2022/05/06 05:18:46;;;;;;;8.07;7.27;;;15.00;97.50;;;;;;5076515;28;20199;-68
2022/05/06 05:21:13;;;;;;;8.00;6.63;;;15.00;97.50;;;;;;5076215;28;20227;-68
2022/05/06 05:23:41;;;;;;;7.77;6.60;;;15.00;97.50;;;;;;5065961;28;20215;-69
2022/05/06 05:26:08;;;;;;;8.07;7.27;;;14.90;97.50;;;;;;5073076;28;20224;-69
2022/05/06 05:28:37;;;;;;;7.70;6.87;;;14.90;97.50;;;;;;5101083;28;20670;-69
2022/05/06 05:31:07;;;;;;;9.87;7.50;;;14.90;97.60;;;;;;5062523;28;20223;-69
2022/05/06 05:33:37;;;;;;;10.20;7.90;;;14.80;97.60;;;;;;5080426;28;20216;-69
2022/05/06 05:36:05;;;;;;;8.17;7.33;;;14.90;97.80;;;;;;5072500;28;20213;-69
2022/05/06 05:38:32;;;;;;;9.83;7.70;;;14.90;97.80;;;;;;5073255;28;20232;-69
2022/05/06 05:41:01;;;;;;;8.10;7.10;;;14.90;97.80;;;;;;5071729;28;20226;-69
2022/05/06 05:49:04;;;;;;;7.30;6.53;;;14.90;97.80;;;;;;5063248;28;20304;-69
2022/05/06 05:51:35;;;;;;;8.83;7.90;;;14.90;97.80;;;;;;5074320;28;20208;-69
2022/05/06 05:54:04;;;;;;;8.67;7.27;;;14.90;97.80;;;;;;5096809;28;20217;-69
2022/05/06 05:56:33;;;;;;;8.07;7.13;;;15.00;97.90;;;;;;5069091;28;20670;-69
2022/05/06 05:59:00;;;;;;;8.43;7.23;;;15.00;98.00;;;;;;5065849;28;20243;-69
2022/05/06 06:01:30;;;;;;;10.47;7.47;;;15.00;97.90;;;;;;5072571;28;20243;-69
2022/05/06 06:04:02;;;;;;;8.10;6.83;;;15.00;97.90;;;;;;5068646;28;20646;-69
2022/05/06 06:06:38;;;;;;;9.80;7.20;;;15.00;97.90;;;;;;5106027;28;20219;-69
2022/05/06 06:09:06;;;;;;;8.83;7.10;;;15.00;97.90;;;;;;5064259;28;20222;-69
2022/05/06 06:11:35;;;;;;;8.50;7.60;;;14.90;98.00;;;;;;5088434;28;20220;-69
2022/05/06 06:14:05;;;;;;;15.77;7.67;;;14.90;98.40;;;;;;5074132;28;20217;-69
2022/05/06 06:16:32;;;;;;;8.97;6.53;;;14.90;98.20;;;;;;5071536;28;20237;-69
2022/05/06 06:19:00;;;;;;;9.80;7.40;;;14.90;98.30;;;;;;5072214;28;20523;-69
2022/05/06 06:21:31;;;;;;;9.93;6.83;;;14.90;98.40;;;;;;5072112;28;20485;-69
2022/05/06 06:23:59;;;;;;;10.70;7.07;;;14.90;98.30;;;;;;5067411;28;20216;-69
2022/05/06 06:26:26;;;;;;;8.20;7.40;;;14.80;98.30;;;;;;5072967;28;20244;-69
2022/05/06 06:28:56;;;;;;;8.63;6.90;;;14.80;98.30;;;;;;5073383;28;20217;-69
2022/05/06 06:31:24;;;;;;;9.90;7.03;;;14.80;98.40;;;;;;5059395;28;20219;-69
2022/05/06 06:33:52;;;;;;;9.80;7.80;;;14.80;98.50;;;;;;5066501;28;20220;-69
2022/05/06 06:36:28;;;;;;;10.47;7.07;;;14.80;98.50;;;;;;5076747;28;20619;-69
2022/05/06 06:38:56;;;;;;;6.70;6.13;;;14.80;98.60;;;;;;5088072;28;20199;-69
2022/05/06 06:41:24;;;;;;;8.13;7.27;;;14.80;98.60;;;;;;5061069;28;20311;-69
2022/05/06 06:43:51;;;;;;;7.43;6.73;;;14.80;98.70;;;;;;5066185;28;20232;-69
2022/05/06 06:46:41;;;;;;;9.50;6.83;;;14.80;98.70;;;;;;5054156;28;20227;-69
2022/05/06 06:49:47;;;;;;;7.57;6.77;;;14.80;98.70;;;;;;5034181;28;20296;-69
2022/05/06 06:52:33;;;;;;;6.70;6.07;;;14.80;98.70;;;;;;5034284;28;20655;-70
2022/05/06 06:55:00;;;;;;;8.20;6.63;;;14.80;98.70;;;;;;5063700;28;20218;-69
2022/05/06 06:57:30;;;;;;;10.63;6.30;;;14.90;98.70;;;;;;5079019;28;20514;-69
2022/05/06 06:59:57;;;;;;;8.27;6.83;;;14.80;98.70;;;;;;5100594;28;20217;-69
2022/05/06 07:02:25;;;;;;;7.80;7.10;;;14.80;98.70;;;;;;5097347;28;20208;-69
2022/05/06 07:04:52;;;;;;;9.33;6.73;;;14.80;98.90;;;;;;5084888;28;20204;-69
2022/05/06 07:12:51;;;;;;;7.73;7.00;;;14.80;98.60;;;;;;5075865;28;20233;-69
2022/05/06 07:15:18;;;;;;;7.27;6.57;;;14.90;98.50;;;;;;5082505;28;20536;-69
2022/05/06 07:17:45;;;;;;;7.63;6.47;;;14.80;98.50;;;;;;5084405;28;20247;-69
2022/05/06 07:20:13;;;;;;;9.27;7.03;;;14.80;98.50;;;;;;5086623;28;20230;-69
2022/05/06 07:22:40;;;;;;;7.63;6.63;;;14.90;98.60;;;;;;5091413;28;20586;-69
2022/05/06 07:25:07;;;;;;;8.17;6.87;;;14.90;98.60;;;;;;5075437;28;20631;-69
2022/05/06 07:27:35;;;;;;;8.27;5.97;;;14.90;98.50;;;;;;5102070;28;20219;-69
2022/05/06 07:30:09;;;;;;;8.53;6.83;;;14.90;98.40;;;;;;5101929;28;20203;-69
2022/05/06 07:32:37;;;;;;;7.23;6.53;;;14.90;98.40;;;;;;5093141;28;20684;-68
2022/05/06 07:35:05;;;;;;;10.33;6.13;;;14.90;98.30;;;;;;5100871;28;20224;-68
2022/05/06 07:37:33;;;;;;;7.33;6.63;;;15.00;98.30;;;;;;5092621;28;20205;-68
2022/05/06 07:40:02;;;;;;;7.50;6.33;;;15.00;98.30;;;;;;5086834;28;20203;-68
2022/05/06 07:42:30;;;;;;;8.63;6.43;;;15.10;98.30;;;;;;5075235;28;20202;-68
2022/05/06 07:44:58;;;;;;;7.50;6.53;;;15.10;98.30;;;;;;5074013;28;20230;-68
2022/05/06 07:47:25;;;;;;;7.37;6.67;;;15.10;98.20;;;;;;5092399;28;20256;-68
2022/05/06 07:50:12;;;;;;;6.43;5.83;;;15.20;98.20;;;;;;5086166;28;20221;-68
2022/05/06 07:52:40;;;;;;;7.90;6.90;;;15.20;98.20;;;;;;5093407;28;20223;-68
2022/05/06 07:55:10;;;;;;;7.10;6.03;;;15.20;98.20;;;;;;5099332;28;20207;-68
2022/05/06 07:57:37;;;;;;;8.73;5.63;;;15.20;98.10;;;;;;5107906;28;20312;-69
2022/05/06 08:00:04;;;;;;;6.77;6.17;;;15.30;98.10;;;;;;5086860;28;20208;-69
2022/05/06 08:05:40;;;;;;;5.93;5.33;;;15.30;97.70;;;;;;5068715;28;20227;-69
2022/05/06 08:08:08;;;;;;;6.50;5.87;;;15.30;97.30;;;;;;5092838;28;20705;-69
2022/05/06 08:10:35;;;;;;;8.67;6.30;;;15.30;97.20;;;;;;5086199;28;20208;-69
2022/05/06 08:13:02;;;;;;;7.20;5.70;;;15.30;97.20;;;;;;5073584;28;20557;-69
2022/05/06 08:15:29;;;;;;;7.13;4.97;;;15.40;97.20;;;;;;5074419;28;20212;-69
2022/05/06 08:17:57;;;;;;;7.97;6.23;;;15.40;97.00;;;;;;5074852;28;20204;-69
2022/05/06 08:20:24;;;;;;;8.27;5.97;;;15.40;97.00;;;;;;5084022;28;20216;-69
2022/05/06 08:22:51;;;;;;;8.63;6.07;;;15.40;97.00;;;;;;5091501;28;20238;-69
2022/05/06 08:25:18;;;;;;;8.60;6.93;;;15.40;97.00;;;;;;5086108;28;20209;-69
2022/05/06 08:27:57;;;;;;;7.90;6.43;;;15.40;97.10;;;;;;5091981;28;20201;-69
2022/05/06 08:30:24;;;;;;;9.80;7.43;;;15.50;97.20;;;;;;5096126;28;20239;-69
2022/05/06 08:32:51;;;;;;;8.43;6.70;;;15.50;97.30;;;;;;5078943;28;20216;-69
2022/05/06 08:35:21;;;;;;;10.47;7.47;;;15.50;97.30;;;;;;5064490;28;20307;-69
2022/05/06 08:37:48;;;;;;;9.97;6.83;;;15.50;97.20;;;;;;5060216;28;20240;-69
2022/05/06 08:40:25;;;;;;;9.67;7.20;;;15.50;97.20;;;;;;5081515;28;20211;-69
2022/05/06 08:42:53;;;;;;;10.43;7.30;;;15.50;97.20;;;;;;5081992;28;20202;-69
2022/05/06 08:50:54;;;;;;;7.60;6.87;;;15.50;97.00;;;;;;5084605;28;20204;-69
2022/05/06 08:53:33;;;;;;;9.20;6.57;;;15.50;97.00;;;;;;5090974;28;20731;-69
2022/05/06 08:56:04;;;;;;;6.97;5.83;;;15.50;97.10;;;;;;5080138;28;20214;-69
2022/05/06 08:58:37;;;;;;;7.73;6.93;;;15.50;97.00;;;;;;5073194;28;20234;-69
2022/05/06 09:01:12;;;;;;;6.63;5.70;;;15.50;97.00;;;;;;5070985;28;20315;-69
2022/05/06 09:03:46;;;;;;;6.77;6.10;;;15.60;97.00;;;;;;5084003;28;20201;-69
2022/05/06 09:06:20;;;;;;;7.70;5.73;;;15.60;97.00;;;;;;5063989;28;20213;-69
2022/05/06 09:08:50;;;;;;;7.70;5.17;;;15.60;97.00;;;;;;5092234;28;20280;-69
2022/05/06 09:12:40;;;;;;;10.23;6.17;;;15.60;97.00;;;;;;5081490;28;20197;-69
2022/05/06 09:14:07;;;;;;;6.07;5.57;;;15.60;97.00;;;;;;5080888;28;20204;-69
2022/05/06 09:16:40;;;;;;;9.17;5.90;;;15.70;97.00;;;;;;5082532;28;20770;-69
2022/05/06 09:19:22;;;;;;;7.93;6.00;;;15.70;96.90;;;;;;5073489;28;20240;-69
2022/05/06 09:22:17;;;;;;;6.37;5.77;;;15.70;96.70;;;;;;5089259;28;20259;-69
2022/05/06 09:24:50;;;;;;;9.20;6.40;;;15.70;96.70;;;;;;5075160;28;20227;-69
2022/05/06 09:27:18;;;;;;;9.60;6.17;;;15.70;96.60;;;;;;5066922;28;20207;-69
2022/05/06 09:29:46;;;;;;;6.90;5.73;;;15.70;96.60;;;;;;5106783;28;20203;-69
2022/05/06 09:32:25;;;;;;;9.50;6.27;;;15.70;96.70;;;;;;5099424;28;20198;-69
2022/05/06 09:35:19;;;;;;;7.70;5.63;;;15.70;96.70;;;;;;5075420;28;20528;-69
2022/05/06 09:37:48;;;;;;;6.83;6.20;;;15.70;96.50;;;;;;5084505;28;20209;-69
2022/05/06 09:40:21;;;;;;;8.23;6.23;;;15.80;96.80;;;;;;5090757;28;20228;-69
2022/05/06 09:42:55;;;;;;;6.47;5.87;;;15.80;96.50;;;;;;5083689;28;20232;-69
2022/05/06 09:45:31;;;;;;;8.70;6.37;;;15.80;96.40;;;;;;5106375;28;20219;-69
2022/05/06 09:48:09;;;;;;;7.17;5.63;;;15.80;96.30;;;;;;5074678;28;20270;-69
2022/05/06 09:50:38;;;;;;;7.43;5.97;;;15.90;96.30;;;;;;5072431;28;20548;-69
2022/05/06 09:53:08;;;;;;;6.80;6.10;;;15.90;96.30;;;;;;5080443;28;20272;-69
2022/05/06 09:55:37;;;;;;;7.83;5.40;;;16.00;96.20;;;;;;5076005;28;20270;-69
2022/05/06 09:58:06;;;;;;;6.50;5.20;;;16.00;96.20;;;;;;5085188;28;20227;-69
2022/05/06 10:00:33;;;;;;;7.57;5.43;;;16.00;96.10;;;;;;5075991;28;20209;-69
2022/05/06 10:03:01;;;;;;;9.87;5.80;;;16.00;96.10;;;;;;5085714;28;20725;-69
2022/05/06 10:05:29;;;;;;;8.97;5.90;;;16.00;96.10;;;;;;5090188;28;20239;-69
2022/05/06 10:08:00;;;;;;;7.30;5.87;;;16.00;96.00;;;;;;5076098;28;20261;-69
2022/05/06 10:10:40;;;;;;;8.40;5.70;;;16.00;96.10;;;;;;5061400;28;20203;-69
2022/05/06 10:13:22;;;;;;;7.87;6.63;;;16.10;96.10;;;;;;5067634;28;20204;-69
2022/05/06 10:15:52;;;;;;;6.63;6.03;;;16.10;96.20;;;;;;5086225;28;20200;-69
2022/05/06 10:18:34;;;;;;;7.30;5.57;;;16.10;96.20;;;;;;5067613;28;20701;-68
2022/05/06 10:21:03;;;;;;;6.07;5.57;;;16.10;96.00;;;;;;5090194;28;20237;-69
2022/05/06 10:23:50;;;;;;;6.70;6.00;;;16.10;95.90;;;;;;5071729;28;20275;-69
2022/05/06 10:26:42;;;;;;;9.80;5.73;;;16.10;96.00;;;;;;5095596;28;20280;-69
2022/05/06 10:32:29;;;;;;;7.70;6.13;;;16.10;95.90;;;;;;5085771;28;20209;-69
2022/05/06 10:35:02;;;;;;;9.27;6.03;;;16.20;96.00;;;;;;5076953;28;20289;-69
2022/05/06 10:37:41;;;;;;;7.80;6.13;;;16.20;96.10;;;;;;5104912;28;20230;-69
2022/05/06 10:40:23;;;;;;;11.23;6.23;;;16.30;96.00;;;;;;5061348;28;20217;-69
2022/05/06 10:42:52;;;;;;;15.27;6.33;;;16.30;95.90;;;;;;5088107;28;20233;-69
2022/05/06 10:45:27;;;;;;;7.67;6.17;;;16.40;95.90;;;;;;5093712;28;20211;-69
2022/05/06 10:47:54;;;;;;;6.67;5.40;;;16.40;96.00;;;;;;5085942;28;20238;-69
2022/05/06 10:50:24;;;;;;;7.30;5.70;;;16.40;95.70;;;;;;5109251;28;20215;-69
2022/05/06 10:52:57;;;;;;;7.10;5.57;;;16.50;95.50;;;;;;5084551;28;20205;-69
2022/05/06 10:55:25;;;;;;;8.03;5.67;;;16.50;95.30;;;;;;5091864;28;20555;-69
2022/05/06 10:57:58;;;;;;;9.37;6.17;;;16.50;94.80;;;;;;5091972;28;20732;-69
2022/05/06 11:00:27;;;;;;;7.70;6.13;;;16.60;95.20;;;;;;5085150;28;20196;-69
2022/05/06 11:02:58;;;;;;;7.27;6.00;;;16.60;95.20;;;;;;5100106;28;20229;-69
2022/05/06 11:05:29;;;;;;;6.87;6.27;;;16.60;95.30;;;;;;5092731;28;20250;-69
2022/05/06 11:07:59;;;;;;;7.00;6.27;;;16.70;95.40;;;;;;5067711;28;20533;-69
2022/05/06 11:10:28;;;;;;;8.93;6.67;;;16.70;95.20;;;;;;5054914;28;20743;-69
2022/05/06 11:13:17;;;;;;;9.17;6.07;;;16.80;95.10;;;;;;5083911;28;20207;-69
2022/05/06 11:15:45;;;;;;;7.50;5.50;;;16.80;94.70;;;;;;5092960;28;20293;-69
2022/05/06 11:18:13;;;;;;;7.73;5.70;;;16.80;94.80;;;;;;5068015;28;20221;-69
2022/05/06 11:20:40;;;;;;;6.70;5.47;;;16.80;94.80;;;;;;5092708;28;20643;-69
2022/05/06 11:23:09;;;;;;;8.77;5.80;;;16.80;94.90;;;;;;5087931;28;20245;-69
2022/05/06 11:25:44;;;;;;;6.23;5.60;;;16.90;94.90;;;;;;5094500;28;20221;-69
2022/05/06 11:28:17;;;;;;;7.77;6.17;;;16.90;94.70;;;;;;5080906;28;20273;-69
2022/05/06 11:30:46;;;;;;;8.47;7.47;;;16.90;94.50;;;;;;5098586;28;20657;-69
2022/05/06 11:33:25;;;;;;;8.77;7.03;;;17.00;94.70;;;;;;5086523;28;20202;-69
2022/05/06 11:36:03;;;;;;;9.47;7.30;;;17.00;94.90;;;;;;5091277;28;20209;-69
2022/05/06 11:38:46;;;;;;;8.07;7.27;;;17.10;95.00;;;;;;5067291;28;20209;-69
2022/05/06 11:41:16;;;;;;;11.10;8.13;;;17.10;94.90;;;;;;5080515;28;20209;-69
2022/05/06 11:43:45;;;;;;;9.27;7.57;;;17.20;94.70;;;;;;5103184;28;20220;-69
2022/05/06 11:49:06;;;;;;;10.17;7.97;;;17.10;94.30;;;;;;5099629;28;20773;-68
2022/05/06 11:51:43;;;;;;;11.27;8.23;;;17.10;94.50;;;;;;5057214;28;20218;-68
2022/05/06 11:54:11;;;;;;;10.93;7.50;;;16.90;94.10;;;;;;5084258;28;20254;-68
2022/05/06 11:56:39;;;;;;;9.37;8.43;;;16.80;94.30;;;;;;5092593;28;20224;-69
2022/05/06 11:59:09;;;;;;;8.50;7.70;;;16.70;94.70;;;;;;5102658;28;20227;-69
2022/05/06 12:01:37;;;;;;;10.07;8.20;;;16.70;95.00;;;;;;5092862;28;20209;-69
2022/05/06 12:04:07;;;;;;;8.17;7.47;;;16.60;95.10;;;;;;5075760;28;20211;-69
2022/05/06 12:06:44;;;;;;;12.43;8.13;;;16.60;95.30;;;;;;5077619;28;20198;-69
2022/05/06 12:09:22;;;;;;;9.83;8.00;;;16.50;95.30;;;;;;5082738;28;20273;-69
2022/05/06 12:12:10;;;;;;;12.60;9.20;;;16.50;95.40;;;;;;5076589;28;20286;-70
2022/05/06 12:14:39;;;;;;;11.03;8.13;;;16.50;95.60;;;;;;5084590;28;20263;-69
2022/05/06 12:17:14;;;;;;;10.67;8.97;;;16.50;95.90;;;;;;5087039;28;20215;-69
2022/05/06 12:19:44;;;;;;;13.00;8.70;;;16.50;96.00;;;;;;5067637;28;20651;-69
2022/05/06 12:22:13;;;;;;;11.73;7.87;;;16.50;96.40;;;;;;5092659;28;20693;-69
2022/05/06 12:24:42;;;;;;;8.97;7.37;;;16.50;95.80;;;;;;5099710;28;20302;-69
2022/05/06 12:27:10;;;;;;;8.70;7.23;;;16.50;95.60;;;;;;5065697;28;20503;-69
2022/05/06 12:29:41;;;;;;;7.30;6.23;;;16.50;95.60;;;;;;5097762;28;20235;-69
2022/05/06 12:32:08;;;;;;;7.77;7.00;;;16.50;95.60;;;;;;5082143;28;20206;-69
2022/05/06 12:34:35;;;;;;;10.17;6.10;;;16.50;95.30;;;;;;5082097;28;20295;-69
2022/05/06 12:37:17;;;;;;;8.47;6.97;;;16.50;95.10;;;;;;5092577;28;20208;-69
2022/05/06 12:39:48;;;;;;;8.13;6.37;;;16.60;95.10;;;;;;5074148;28;20209;-69
2022/05/06 12:42:17;;;;;;;10.57;7.50;;;16.60;95.10;;;;;;5069171;28;20317;-69
2022/05/06 12:44:47;;;;;;;9.50;6.93;;;16.60;95.20;;;;;;5081941;28;20215;-69
2022/05/06 12:50:09;;;;;;;12.07;8.07;;;16.70;95.10;;;;;;5084320;28;20197;-69
2022/05/06 12:52:37;;;;;;;10.03;6.73;;;16.70;94.90;;;;;;5075062;28;20212;-69
2022/05/06 12:55:07;;;;;;;7.27;6.60;;;16.80;94.90;;;;;;5098427;28;20204;-69
2022/05/06 12:57:34;;;;;;;8.77;6.00;;;16.80;94.60;;;;;;5073829;28;20662;-68
2022/05/06 13:00:02;;;;;;;8.47;7.07;;;16.80;94.10;;;;;;5086115;28;20213;-69
2022/05/06 13:02:29;;;;;;;8.67;6.70;;;16.80;94.20;;;;;;5093130;28;20225;-68
2022/05/06 13:04:57;;;;;;;8.70;7.00;;;16.70;94.20;;;;;;5062444;28;20613;-69
2022/05/06 13:07:25;;;;;;;8.13;7.30;;;16.70;94.60;;;;;;5071910;28;20262;-69
2022/05/06 13:09:52;;;;;;;8.80;6.70;;;16.70;94.60;;;;;;5094880;28;20519;-69
2022/05/06 13:12:20;;;;;;;10.60;7.07;;;16.70;94.50;;;;;;5088972;28;20290;-69
2022/05/06 13:14:47;;;;;;;7.90;6.93;;;16.80;94.70;;;;;;5073054;28;20264;-69
2022/05/06 13:17:15;;;;;;;7.80;6.70;;;16.80;94.20;;;;;;5073345;28;20205;-69
2022/05/06 13:19:42;;;;;;;9.37;6.97;;;16.80;94.30;;;;;;5065948;28;20639;-69
2022/05/06 13:22:09;;;;;;;8.70;6.57;;;16.80;94.30;;;;;;5065231;28;20250;-68
2022/05/06 13:24:36;;;;;;;7.20;6.20;;;16.80;94.00;;;;;;5071024;28;20241;-69
2022/05/06 13:27:05;;;;;;;7.70;6.57;;;16.80;93.70;;;;;;5058465;28;20210;-68
2022/05/06 13:29:32;;;;;;;8.57;6.67;;;16.80;93.80;;;;;;5057667;28;20537;-69
2022/05/06 13:31:59;;;;;;;10.50;7.50;;;16.80;94.00;;;;;;5067725;28;20306;-69
2022/05/06 13:34:27;;;;;;;10.60;7.30;;;16.80;93.80;;;;;;5069301;28;20287;-68
2022/05/06 13:36:54;;;;;;;8.37;6.47;;;16.80;94.00;;;;;;5058727;28;20722;-70
2022/05/06 13:39:21;;;;;;;8.97;6.70;;;16.90;93.60;;;;;;5070971;28;20276;-69
2022/05/06 13:41:48;;;;;;;6.97;6.17;;;16.90;93.50;;;;;;5064980;28;20239;-69
2022/05/06 13:44:15;;;;;;;8.73;6.17;;;16.90;93.10;;;;;;5069869;28;20243;-68